sensor_id;sensor_type;location;lat;lon;timestamp;P1;durP1;ratioP1;P2;durP2;ratioP2
18090;SDS011;9172;49.948;9.208;2023-11-21T00:00:05;2.40;;;1.03;;
18090;SDS011;9172;49.948;9.208;2023-11-21T00:02:37;7.87;;;1.70;;
18090;SDS011;9172;49.948;9.208;2023-11-21T00:05:07;2.27;;;1.13;;
18090;SDS011;9172;49.948;9.208;2023-11-21T00:07:36;1.87;;;1.00;;
18090;SDS011;9172;49.948;9.208;2023-11-21T00:10:05;2.23;;;0.80;;
18090;SDS011;9172;49.948;9.208;2023-11-21T00:12:36;5.87;;;1.43;;
18090;SDS011;9172;49.948;9.208;2023-11-21T00:15:08;5.13;;;1.33;;
18090;SDS011;9172;49.948;9.208;2023-11-21T00:17:37;4.40;;;1.20;;
18090;SDS011;9172;49.948;9.208;2023-11-21T00:20:07;3.30;;;1.07;;
18090;SDS011;9172;49.948;9.208;2023-11-21T00:22:39;7.20;;;1.20;;
18090;SDS011;9172;49.948;9.208;2023-11-21T00:25:08;6.07;;;1.10;;
18090;SDS011;9172;49.948;9.208;2023-11-21T00:27:36;2.50;;;1.03;;
18090;SDS011;9172;49.948;9.208;2023-11-21T00:30:06;3.40;;;1.07;;
18090;SDS011;9172;49.948;9.208;2023-11-21T00:32:36;1.93;;;1.10;;
18090;SDS011;9172;49.948;9.208;2023-11-21T00:35:06;2.40;;;1.10;;
18090;SDS011;9172;49.948;9.208;2023-11-21T00:37:35;3.63;;;1.40;;
18090;SDS011;9172;49.948;9.208;2023-11-21T00:40:06;4.63;;;0.97;;
18090;SDS011;9172;49.948;9.208;2023-11-21T00:42:36;3.17;;;1.00;;
18090;SDS011;9172;49.948;9.208;2023-11-21T00:45:06;3.07;;;0.90;;
18090;SDS011;9172;49.948;9.208;2023-11-21T00:47:36;4.37;;;1.13;;
18090;SDS011;9172;49.948;9.208;2023-11-21T00:50:05;2.43;;;1.20;;
18090;SDS011;9172;49.948;9.208;2023-11-21T00:52:35;2.07;;;1.10;;
18090;SDS011;9172;49.948;9.208;2023-11-21T00:55:04;2.37;;;1.00;;
18090;SDS011;9172;49.948;9.208;2023-11-21T00:57:34;7.73;;;0.90;;
18090;SDS011;9172;49.948;9.208;2023-11-21T01:00:04;2.37;;;0.80;;
18090;SDS011;9172;49.948;9.208;2023-11-21T01:02:35;3.40;;;1.20;;
18090;SDS011;9172;49.948;9.208;2023-11-21T01:05:05;4.40;;;1.20;;
18090;SDS011;9172;49.948;9.208;2023-11-21T01:07:34;6.27;;;1.10;;
18090;SDS011;9172;49.948;9.208;2023-11-21T01:10:04;2.13;;;0.97;;
18090;SDS011;9172;49.948;9.208;2023-11-21T01:12:34;3.57;;;1.03;;
18090;SDS011;9172;49.948;9.208;2023-11-21T01:15:04;4.47;;;1.30;;
18090;SDS011;9172;49.948;9.208;2023-11-21T01:17:34;1.93;;;0.90;;
18090;SDS011;9172;49.948;9.208;2023-11-21T01:20:14;2.47;;;1.20;;
18090;SDS011;9172;49.948;9.208;2023-11-21T01:22:43;3.37;;;1.00;;
18090;SDS011;9172;49.948;9.208;2023-11-21T01:25:13;6.20;;;1.53;;
18090;SDS011;9172;49.948;9.208;2023-11-21T01:27:42;1.47;;;0.73;;
18090;SDS011;9172;49.948;9.208;2023-11-21T01:30:11;4.87;;;1.33;;
18090;SDS011;9172;49.948;9.208;2023-11-21T01:32:42;2.47;;;1.10;;
18090;SDS011;9172;49.948;9.208;2023-11-21T01:35:11;2.87;;;0.90;;
18090;SDS011;9172;49.948;9.208;2023-11-21T01:37:39;1.93;;;0.77;;
18090;SDS011;9172;49.948;9.208;2023-11-21T01:40:09;1.83;;;0.80;;
18090;SDS011;9172;49.948;9.208;2023-11-21T01:42:40;4.47;;;1.00;;
18090;SDS011;9172;49.948;9.208;2023-11-21T01:45:10;1.07;;;0.70;;
18090;SDS011;9172;49.948;9.208;2023-11-21T01:47:39;4.87;;;1.30;;
18090;SDS011;9172;49.948;9.208;2023-11-21T01:50:09;2.80;;;1.00;;
18090;SDS011;9172;49.948;9.208;2023-11-21T01:52:50;2.77;;;0.97;;
18090;SDS011;9172;49.948;9.208;2023-11-21T01:55:20;4.07;;;0.90;;
18090;SDS011;9172;49.948;9.208;2023-11-21T01:57:50;3.50;;;1.13;;
18090;SDS011;9172;49.948;9.208;2023-11-21T02:00:18;1.90;;;1.00;;
18090;SDS011;9172;49.948;9.208;2023-11-21T02:02:47;3.17;;;1.20;;
18090;SDS011;9172;49.948;9.208;2023-11-21T02:05:16;3.67;;;1.27;;
18090;SDS011;9172;49.948;9.208;2023-11-21T02:07:46;1.33;;;0.83;;
18090;SDS011;9172;49.948;9.208;2023-11-21T02:10:14;1.43;;;0.73;;
18090;SDS011;9172;49.948;9.208;2023-11-21T02:12:45;6.57;;;1.13;;
18090;SDS011;9172;49.948;9.208;2023-11-21T02:15:13;1.10;;;0.73;;
18090;SDS011;9172;49.948;9.208;2023-11-21T02:17:44;3.77;;;1.17;;
18090;SDS011;9172;49.948;9.208;2023-11-21T02:20:16;3.00;;;0.97;;
18090;SDS011;9172;49.948;9.208;2023-11-21T02:22:49;1.07;;;0.87;;
18090;SDS011;9172;49.948;9.208;2023-11-21T02:25:21;2.43;;;0.80;;
18090;SDS011;9172;49.948;9.208;2023-11-21T02:27:49;0.83;;;0.67;;
18090;SDS011;9172;49.948;9.208;2023-11-21T02:30:18;3.33;;;1.10;;
18090;SDS011;9172;49.948;9.208;2023-11-21T02:32:47;4.63;;;1.07;;
18090;SDS011;9172;49.948;9.208;2023-11-21T02:35:18;1.10;;;0.70;;
18090;SDS011;9172;49.948;9.208;2023-11-21T02:37:47;1.43;;;0.70;;
18090;SDS011;9172;49.948;9.208;2023-11-21T02:40:16;3.67;;;0.90;;
18090;SDS011;9172;49.948;9.208;2023-11-21T02:42:46;0.73;;;0.53;;
18090;SDS011;9172;49.948;9.208;2023-11-21T02:45:18;0.57;;;0.57;;
18090;SDS011;9172;49.948;9.208;2023-11-21T02:47:48;1.53;;;0.87;;
18090;SDS011;9172;49.948;9.208;2023-11-21T02:50:16;3.80;;;1.50;;
18090;SDS011;9172;49.948;9.208;2023-11-21T02:52:46;3.27;;;1.13;;
18090;SDS011;9172;49.948;9.208;2023-11-21T02:55:16;1.30;;;1.03;;
18090;SDS011;9172;49.948;9.208;2023-11-21T02:57:45;1.07;;;0.80;;
18090;SDS011;9172;49.948;9.208;2023-11-21T03:00:14;2.70;;;0.83;;
18090;SDS011;9172;49.948;9.208;2023-11-21T03:02:44;2.70;;;0.97;;
18090;SDS011;9172;49.948;9.208;2023-11-21T03:05:14;2.47;;;0.87;;
18090;SDS011;9172;49.948;9.208;2023-11-21T03:07:42;3.60;;;0.87;;
18090;SDS011;9172;49.948;9.208;2023-11-21T03:10:11;1.27;;;0.70;;
18090;SDS011;9172;49.948;9.208;2023-11-21T03:12:40;2.23;;;0.60;;
18090;SDS011;9172;49.948;9.208;2023-11-21T03:15:09;0.80;;;0.77;;
18090;SDS011;9172;49.948;9.208;2023-11-21T03:17:37;1.17;;;0.77;;
18090;SDS011;9172;49.948;9.208;2023-11-21T03:20:07;1.13;;;0.77;;
18090;SDS011;9172;49.948;9.208;2023-11-21T03:22:38;2.93;;;1.00;;
18090;SDS011;9172;49.948;9.208;2023-11-21T03:25:07;1.57;;;1.03;;
18090;SDS011;9172;49.948;9.208;2023-11-21T03:27:37;2.37;;;0.93;;
18090;SDS011;9172;49.948;9.208;2023-11-21T03:30:07;4.20;;;1.13;;
18090;SDS011;9172;49.948;9.208;2023-11-21T03:32:37;1.20;;;0.87;;
18090;SDS011;9172;49.948;9.208;2023-11-21T03:35:06;2.40;;;0.80;;
18090;SDS011;9172;49.948;9.208;2023-11-21T03:37:35;1.17;;;0.80;;
18090;SDS011;9172;49.948;9.208;2023-11-21T03:40:07;2.07;;;0.90;;
18090;SDS011;9172;49.948;9.208;2023-11-21T03:42:38;1.10;;;0.90;;
18090;SDS011;9172;49.948;9.208;2023-11-21T03:45:08;2.27;;;0.90;;
18090;SDS011;9172;49.948;9.208;2023-11-21T03:47:39;2.37;;;0.93;;
18090;SDS011;9172;49.948;9.208;2023-11-21T03:50:08;1.57;;;0.97;;
18090;SDS011;9172;49.948;9.208;2023-11-21T03:52:37;3.23;;;1.13;;
18090;SDS011;9172;49.948;9.208;2023-11-21T03:55:06;2.13;;;0.90;;
18090;SDS011;9172;49.948;9.208;2023-11-21T03:57:36;1.40;;;0.87;;
18090;SDS011;9172;49.948;9.208;2023-11-21T04:00:06;6.53;;;1.10;;
18090;SDS011;9172;49.948;9.208;2023-11-21T04:02:36;1.20;;;0.80;;
18090;SDS011;9172;49.948;9.208;2023-11-21T04:05:05;1.13;;;0.83;;
18090;SDS011;9172;49.948;9.208;2023-11-21T04:07:35;1.63;;;0.90;;
18090;SDS011;9172;49.948;9.208;2023-11-21T04:10:05;4.73;;;1.10;;
18090;SDS011;9172;49.948;9.208;2023-11-21T04:12:37;1.47;;;1.00;;
18090;SDS011;9172;49.948;9.208;2023-11-21T04:15:07;2.93;;;1.00;;
18090;SDS011;9172;49.948;9.208;2023-11-21T04:17:37;2.20;;;1.30;;
18090;SDS011;9172;49.948;9.208;2023-11-21T04:20:06;1.77;;;1.10;;
18090;SDS011;9172;49.948;9.208;2023-11-21T04:22:39;2.80;;;1.13;;
18090;SDS011;9172;49.948;9.208;2023-11-21T04:25:09;1.00;;;0.80;;
18090;SDS011;9172;49.948;9.208;2023-11-21T04:27:38;1.00;;;0.90;;
18090;SDS011;9172;49.948;9.208;2023-11-21T04:30:10;2.53;;;1.00;;
18090;SDS011;9172;49.948;9.208;2023-11-21T04:32:40;3.70;;;1.37;;
18090;SDS011;9172;49.948;9.208;2023-11-21T04:35:09;5.07;;;1.10;;
18090;SDS011;9172;49.948;9.208;2023-11-21T04:37:37;2.87;;;1.47;;
18090;SDS011;9172;49.948;9.208;2023-11-21T04:40:07;1.47;;;1.10;;
18090;SDS011;9172;49.948;9.208;2023-11-21T04:42:37;2.47;;;1.33;;
18090;SDS011;9172;49.948;9.208;2023-11-21T04:45:07;1.53;;;1.03;;
18090;SDS011;9172;49.948;9.208;2023-11-21T04:47:37;1.60;;;1.10;;
18090;SDS011;9172;49.948;9.208;2023-11-21T04:50:06;5.00;;;1.13;;
18090;SDS011;9172;49.948;9.208;2023-11-21T04:52:36;5.17;;;1.30;;
18090;SDS011;9172;49.948;9.208;2023-11-21T04:55:05;2.60;;;1.37;;
18090;SDS011;9172;49.948;9.208;2023-11-21T04:57:36;3.90;;;1.57;;
18090;SDS011;9172;49.948;9.208;2023-11-21T05:00:06;2.20;;;1.33;;
18090;SDS011;9172;49.948;9.208;2023-11-21T05:02:36;7.83;;;1.27;;
18090;SDS011;9172;49.948;9.208;2023-11-21T05:05:05;1.90;;;1.33;;
18090;SDS011;9172;49.948;9.208;2023-11-21T05:07:36;2.63;;;1.60;;
18090;SDS011;9172;49.948;9.208;2023-11-21T05:10:06;3.23;;;1.60;;
18090;SDS011;9172;49.948;9.208;2023-11-21T05:12:38;2.93;;;1.43;;
18090;SDS011;9172;49.948;9.208;2023-11-21T05:15:08;2.20;;;1.40;;
18090;SDS011;9172;49.948;9.208;2023-11-21T05:17:39;3.03;;;1.67;;
18090;SDS011;9172;49.948;9.208;2023-11-21T05:20:11;5.20;;;1.97;;
18090;SDS011;9172;49.948;9.208;2023-11-21T05:22:42;2.30;;;1.70;;
18090;SDS011;9172;49.948;9.208;2023-11-21T05:25:11;4.47;;;1.40;;
18090;SDS011;9172;49.948;9.208;2023-11-21T05:27:40;2.93;;;1.70;;
18090;SDS011;9172;49.948;9.208;2023-11-21T05:30:09;2.67;;;1.97;;
18090;SDS011;9172;49.948;9.208;2023-11-21T05:32:40;3.87;;;2.23;;
18090;SDS011;9172;49.948;9.208;2023-11-21T05:35:10;5.07;;;1.93;;
18090;SDS011;9172;49.948;9.208;2023-11-21T05:37:40;2.70;;;1.80;;
18090;SDS011;9172;49.948;9.208;2023-11-21T05:40:10;2.83;;;1.77;;
18090;SDS011;9172;49.948;9.208;2023-11-21T05:42:39;2.33;;;1.60;;
18090;SDS011;9172;49.948;9.208;2023-11-21T05:45:09;5.77;;;2.33;;
18090;SDS011;9172;49.948;9.208;2023-11-21T05:47:38;3.57;;;2.50;;
18090;SDS011;9172;49.948;9.208;2023-11-21T05:50:08;2.67;;;1.80;;
18090;SDS011;9172;49.948;9.208;2023-11-21T05:52:38;3.27;;;1.90;;
18090;SDS011;9172;49.948;9.208;2023-11-21T05:55:07;4.67;;;2.23;;
18090;SDS011;9172;49.948;9.208;2023-11-21T05:57:37;3.90;;;2.40;;
18090;SDS011;9172;49.948;9.208;2023-11-21T06:00:07;7.87;;;2.63;;
18090;SDS011;9172;49.948;9.208;2023-11-21T06:02:39;3.40;;;2.30;;
18090;SDS011;9172;49.948;9.208;2023-11-21T06:05:08;3.73;;;2.50;;
18090;SDS011;9172;49.948;9.208;2023-11-21T06:07:37;6.17;;;2.33;;
18090;SDS011;9172;49.948;9.208;2023-11-21T06:10:08;4.77;;;2.63;;
18090;SDS011;9172;49.948;9.208;2023-11-21T06:12:38;6.53;;;3.23;;
18090;SDS011;9172;49.948;9.208;2023-11-21T06:15:09;4.53;;;2.93;;
18090;SDS011;9172;49.948;9.208;2023-11-21T06:17:40;6.27;;;3.23;;
18090;SDS011;9172;49.948;9.208;2023-11-21T06:20:11;4.03;;;2.47;;
18090;SDS011;9172;49.948;9.208;2023-11-21T06:22:41;5.23;;;2.87;;
18090;SDS011;9172;49.948;9.208;2023-11-21T06:25:10;3.97;;;2.40;;
18090;SDS011;9172;49.948;9.208;2023-11-21T06:27:40;3.20;;;2.37;;
18090;SDS011;9172;49.948;9.208;2023-11-21T06:30:11;6.43;;;3.07;;
18090;SDS011;9172;49.948;9.208;2023-11-21T06:32:40;5.77;;;2.93;;
18090;SDS011;9172;49.948;9.208;2023-11-21T06:35:11;5.47;;;2.97;;
18090;SDS011;9172;49.948;9.208;2023-11-21T06:37:41;6.10;;;2.77;;
18090;SDS011;9172;49.948;9.208;2023-11-21T06:40:12;4.10;;;2.77;;
18090;SDS011;9172;49.948;9.208;2023-11-21T06:42:41;4.33;;;2.57;;
18090;SDS011;9172;49.948;9.208;2023-11-21T06:45:10;21.23;;;7.03;;
18090;SDS011;9172;49.948;9.208;2023-11-21T06:47:39;13.80;;;7.37;;
18090;SDS011;9172;49.948;9.208;2023-11-21T06:50:09;5.47;;;3.77;;
18090;SDS011;9172;49.948;9.208;2023-11-21T06:52:37;8.93;;;4.53;;
18090;SDS011;9172;49.948;9.208;2023-11-21T06:55:07;5.87;;;3.53;;
18090;SDS011;9172;49.948;9.208;2023-11-21T06:57:37;6.67;;;2.87;;
18090;SDS011;9172;49.948;9.208;2023-11-21T07:00:06;4.83;;;3.23;;
18090;SDS011;9172;49.948;9.208;2023-11-21T07:02:36;4.53;;;2.93;;
18090;SDS011;9172;49.948;9.208;2023-11-21T07:05:06;7.10;;;2.90;;
18090;SDS011;9172;49.948;9.208;2023-11-21T07:07:35;8.00;;;3.00;;
18090;SDS011;9172;49.948;9.208;2023-11-21T07:10:04;6.43;;;3.00;;
18090;SDS011;9172;49.948;9.208;2023-11-21T07:12:35;5.77;;;3.10;;
18090;SDS011;9172;49.948;9.208;2023-11-21T07:15:04;6.30;;;2.60;;
18090;SDS011;9172;49.948;9.208;2023-11-21T07:17:35;3.90;;;2.60;;
18090;SDS011;9172;49.948;9.208;2023-11-21T07:20:04;4.70;;;2.97;;
18090;SDS011;9172;49.948;9.208;2023-11-21T07:22:34;7.23;;;4.93;;
18090;SDS011;9172;49.948;9.208;2023-11-21T07:25:04;7.47;;;5.27;;
18090;SDS011;9172;49.948;9.208;2023-11-21T07:27:33;5.37;;;3.87;;
18090;SDS011;9172;49.948;9.208;2023-11-21T07:30:04;5.40;;;3.80;;
18090;SDS011;9172;49.948;9.208;2023-11-21T07:32:35;6.13;;;4.50;;
18090;SDS011;9172;49.948;9.208;2023-11-21T07:35:06;5.17;;;3.20;;
18090;SDS011;9172;49.948;9.208;2023-11-21T07:37:35;4.97;;;3.20;;
18090;SDS011;9172;49.948;9.208;2023-11-21T07:40:05;5.03;;;2.83;;
18090;SDS011;9172;49.948;9.208;2023-11-21T07:42:35;5.70;;;3.00;;
18090;SDS011;9172;49.948;9.208;2023-11-21T07:45:05;3.40;;;2.00;;
18090;SDS011;9172;49.948;9.208;2023-11-21T07:47:35;3.90;;;1.77;;
18090;SDS011;9172;49.948;9.208;2023-11-21T07:50:06;3.73;;;2.10;;
18090;SDS011;9172;49.948;9.208;2023-11-21T07:52:36;3.20;;;1.93;;
18090;SDS011;9172;49.948;9.208;2023-11-21T07:55:05;4.27;;;2.00;;
18090;SDS011;9172;49.948;9.208;2023-11-21T07:57:34;2.87;;;2.20;;
18090;SDS011;9172;49.948;9.208;2023-11-21T08:00:03;2.90;;;2.13;;
18090;SDS011;9172;49.948;9.208;2023-11-21T08:02:35;2.90;;;2.00;;
18090;SDS011;9172;49.948;9.208;2023-11-21T08:05:04;2.83;;;1.90;;
18090;SDS011;9172;49.948;9.208;2023-11-21T08:07:33;3.30;;;1.57;;
18090;SDS011;9172;49.948;9.208;2023-11-21T08:10:02;3.50;;;1.63;;
18090;SDS011;9172;49.948;9.208;2023-11-21T08:12:31;4.13;;;1.83;;
18090;SDS011;9172;49.948;9.208;2023-11-21T08:15:00;3.63;;;1.63;;
18090;SDS011;9172;49.948;9.208;2023-11-21T08:17:29;1.87;;;1.47;;
18090;SDS011;9172;49.948;9.208;2023-11-21T08:19:59;3.83;;;1.67;;
18090;SDS011;9172;49.948;9.208;2023-11-21T08:22:28;3.07;;;1.60;;
18090;SDS011;9172;49.948;9.208;2023-11-21T08:24:57;3.83;;;2.13;;
18090;SDS011;9172;49.948;9.208;2023-11-21T08:27:26;4.23;;;2.13;;
18090;SDS011;9172;49.948;9.208;2023-11-21T08:29:55;2.10;;;1.37;;
18090;SDS011;9172;49.948;9.208;2023-11-21T08:32:24;3.23;;;1.73;;
18090;SDS011;9172;49.948;9.208;2023-11-21T08:34:53;1.77;;;1.27;;
18090;SDS011;9172;49.948;9.208;2023-11-21T08:37:21;3.73;;;1.40;;
18090;SDS011;9172;49.948;9.208;2023-11-21T08:39:50;1.30;;;1.10;;
18090;SDS011;9172;49.948;9.208;2023-11-21T08:42:19;1.20;;;1.10;;
18090;SDS011;9172;49.948;9.208;2023-11-21T08:44:49;2.13;;;1.40;;
18090;SDS011;9172;49.948;9.208;2023-11-21T08:47:17;2.00;;;1.00;;
18090;SDS011;9172;49.948;9.208;2023-11-21T08:49:46;1.90;;;1.17;;
18090;SDS011;9172;49.948;9.208;2023-11-21T08:52:14;2.07;;;1.13;;
18090;SDS011;9172;49.948;9.208;2023-11-21T08:54:43;2.77;;;1.20;;
18090;SDS011;9172;49.948;9.208;2023-11-21T08:57:11;1.50;;;1.00;;
18090;SDS011;9172;49.948;9.208;2023-11-21T08:59:40;3.43;;;1.47;;
18090;SDS011;9172;49.948;9.208;2023-11-21T09:02:08;2.60;;;1.20;;
18090;SDS011;9172;49.948;9.208;2023-11-21T09:04:37;1.80;;;1.40;;
18090;SDS011;9172;49.948;9.208;2023-11-21T09:07:06;3.47;;;1.70;;
18090;SDS011;9172;49.948;9.208;2023-11-21T09:09:35;3.23;;;1.80;;
18090;SDS011;9172;49.948;9.208;2023-11-21T09:12:04;4.83;;;1.73;;
18090;SDS011;9172;49.948;9.208;2023-11-21T09:14:33;2.83;;;1.80;;
18090;SDS011;9172;49.948;9.208;2023-11-21T09:17:02;3.03;;;1.60;;
18090;SDS011;9172;49.948;9.208;2023-11-21T09:19:33;1.60;;;1.43;;
18090;SDS011;9172;49.948;9.208;2023-11-21T09:22:01;1.63;;;1.30;;
18090;SDS011;9172;49.948;9.208;2023-11-21T09:24:31;2.47;;;1.60;;
18090;SDS011;9172;49.948;9.208;2023-11-21T09:26:59;2.37;;;1.63;;
18090;SDS011;9172;49.948;9.208;2023-11-21T09:29:28;4.70;;;1.30;;
18090;SDS011;9172;49.948;9.208;2023-11-21T09:31:58;3.27;;;1.60;;
18090;SDS011;9172;49.948;9.208;2023-11-21T09:34:27;2.30;;;1.40;;
18090;SDS011;9172;49.948;9.208;2023-11-21T09:36:56;8.43;;;2.20;;
18090;SDS011;9172;49.948;9.208;2023-11-21T09:39:24;1.67;;;1.10;;
18090;SDS011;9172;49.948;9.208;2023-11-21T09:41:55;3.97;;;1.20;;
18090;SDS011;9172;49.948;9.208;2023-11-21T09:44:32;6.17;;;1.17;;
18090;SDS011;9172;49.948;9.208;2023-11-21T09:47:03;2.83;;;1.47;;
18090;SDS011;9172;49.948;9.208;2023-11-21T09:49:34;4.30;;;1.63;;
18090;SDS011;9172;49.948;9.208;2023-11-21T09:52:04;2.57;;;1.40;;
18090;SDS011;9172;49.948;9.208;2023-11-21T09:54:36;3.23;;;1.60;;
18090;SDS011;9172;49.948;9.208;2023-11-21T09:57:05;3.20;;;1.60;;
18090;SDS011;9172;49.948;9.208;2023-11-21T09:59:35;4.60;;;2.07;;
18090;SDS011;9172;49.948;9.208;2023-11-21T10:02:04;1.77;;;1.30;;
18090;SDS011;9172;49.948;9.208;2023-11-21T10:04:35;2.50;;;1.60;;
18090;SDS011;9172;49.948;9.208;2023-11-21T10:07:04;2.30;;;1.50;;
18090;SDS011;9172;49.948;9.208;2023-11-21T10:09:35;2.93;;;1.13;;
18090;SDS011;9172;49.948;9.208;2023-11-21T10:12:05;1.90;;;1.30;;
18090;SDS011;9172;49.948;9.208;2023-11-21T10:14:35;3.57;;;1.40;;
18090;SDS011;9172;49.948;9.208;2023-11-21T10:17:07;2.47;;;1.20;;
18090;SDS011;9172;49.948;9.208;2023-11-21T10:19:38;3.63;;;1.10;;
18090;SDS011;9172;49.948;9.208;2023-11-21T10:22:07;1.00;;;0.80;;
18090;SDS011;9172;49.948;9.208;2023-11-21T10:24:36;3.03;;;1.00;;
18090;SDS011;9172;49.948;9.208;2023-11-21T10:27:05;3.07;;;0.83;;
18090;SDS011;9172;49.948;9.208;2023-11-21T10:29:33;1.77;;;1.03;;
18090;SDS011;9172;49.948;9.208;2023-11-21T10:32:02;2.57;;;1.07;;
18090;SDS011;9172;49.948;9.208;2023-11-21T10:34:32;3.07;;;1.20;;
18090;SDS011;9172;49.948;9.208;2023-11-21T10:37:08;1.83;;;1.20;;
18090;SDS011;9172;49.948;9.208;2023-11-21T10:39:39;3.83;;;1.33;;
18090;SDS011;9172;49.948;9.208;2023-11-21T10:42:09;3.93;;;1.20;;
18090;SDS011;9172;49.948;9.208;2023-11-21T10:44:38;3.63;;;1.50;;
18090;SDS011;9172;49.948;9.208;2023-11-21T10:47:10;2.20;;;1.27;;
18090;SDS011;9172;49.948;9.208;2023-11-21T10:49:39;4.23;;;1.20;;
18090;SDS011;9172;49.948;9.208;2023-11-21T10:52:08;2.10;;;1.17;;
18090;SDS011;9172;49.948;9.208;2023-11-21T10:54:39;1.60;;;0.90;;
18090;SDS011;9172;49.948;9.208;2023-11-21T10:57:07;3.77;;;1.10;;
18090;SDS011;9172;49.948;9.208;2023-11-21T10:59:37;1.77;;;1.20;;
18090;SDS011;9172;49.948;9.208;2023-11-21T11:02:07;3.17;;;1.23;;
18090;SDS011;9172;49.948;9.208;2023-11-21T11:04:39;1.87;;;1.27;;
18090;SDS011;9172;49.948;9.208;2023-11-21T11:07:09;1.80;;;1.17;;
18090;SDS011;9172;49.948;9.208;2023-11-21T11:09:39;2.67;;;1.30;;
18090;SDS011;9172;49.948;9.208;2023-11-21T11:12:10;2.07;;;0.77;;
18090;SDS011;9172;49.948;9.208;2023-11-21T11:14:41;5.27;;;1.33;;
18090;SDS011;9172;49.948;9.208;2023-11-21T11:17:11;2.23;;;1.10;;
18090;SDS011;9172;49.948;9.208;2023-11-21T11:19:40;3.87;;;1.10;;
18090;SDS011;9172;49.948;9.208;2023-11-21T11:22:16;10.00;;;1.30;;
18090;SDS011;9172;49.948;9.208;2023-11-21T11:24:53;7.00;;;1.93;;
18090;SDS011;9172;49.948;9.208;2023-11-21T11:27:34;4.03;;;1.50;;
18090;SDS011;9172;49.948;9.208;2023-11-21T11:30:09;1.50;;;1.13;;
18090;SDS011;9172;49.948;9.208;2023-11-21T11:32:43;5.97;;;1.70;;
18090;SDS011;9172;49.948;9.208;2023-11-21T11:35:14;3.07;;;1.70;;
18090;SDS011;9172;49.948;9.208;2023-11-21T11:37:58;4.23;;;1.53;;
18090;SDS011;9172;49.948;9.208;2023-11-21T11:40:38;2.97;;;1.57;;
18090;SDS011;9172;49.948;9.208;2023-11-21T11:43:08;8.87;;;1.77;;
18090;SDS011;9172;49.948;9.208;2023-11-21T11:45:36;5.20;;;1.30;;
18090;SDS011;9172;49.948;9.208;2023-11-21T11:48:08;2.87;;;1.23;;
18090;SDS011;9172;49.948;9.208;2023-11-21T11:50:42;5.20;;;1.80;;
18090;SDS011;9172;49.948;9.208;2023-11-21T11:53:37;5.13;;;1.50;;
18090;SDS011;9172;49.948;9.208;2023-11-21T11:59:06;8.33;;;1.60;;
18090;SDS011;9172;49.948;9.208;2023-11-21T12:01:35;3.67;;;1.83;;
18090;SDS011;9172;49.948;9.208;2023-11-21T12:07:00;2.57;;;1.40;;
18090;SDS011;9172;49.948;9.208;2023-11-21T12:09:31;2.03;;;1.10;;
18090;SDS011;9172;49.948;9.208;2023-11-21T12:12:00;1.80;;;1.03;;
18090;SDS011;9172;49.948;9.208;2023-11-21T12:14:32;5.53;;;1.50;;
18090;SDS011;9172;49.948;9.208;2023-11-21T12:17:02;2.80;;;1.60;;
18090;SDS011;9172;49.948;9.208;2023-11-21T12:19:31;4.00;;;2.13;;
18090;SDS011;9172;49.948;9.208;2023-11-21T12:22:00;4.57;;;1.60;;
18090;SDS011;9172;49.948;9.208;2023-11-21T12:24:29;10.50;;;1.50;;
18090;SDS011;9172;49.948;9.208;2023-11-21T12:26:57;4.00;;;1.70;;
18090;SDS011;9172;49.948;9.208;2023-11-21T12:29:26;9.17;;;1.67;;
18090;SDS011;9172;49.948;9.208;2023-11-21T12:31:55;2.07;;;1.20;;
18090;SDS011;9172;49.948;9.208;2023-11-21T12:34:24;4.27;;;1.47;;
18090;SDS011;9172;49.948;9.208;2023-11-21T12:36:53;1.93;;;1.30;;
18090;SDS011;9172;49.948;9.208;2023-11-21T12:39:22;2.47;;;1.33;;
18090;SDS011;9172;49.948;9.208;2023-11-21T12:41:51;3.27;;;1.77;;
18090;SDS011;9172;49.948;9.208;2023-11-21T12:44:20;3.57;;;1.30;;
18090;SDS011;9172;49.948;9.208;2023-11-21T12:46:50;2.67;;;1.30;;
18090;SDS011;9172;49.948;9.208;2023-11-21T12:49:19;2.73;;;1.27;;
18090;SDS011;9172;49.948;9.208;2023-11-21T12:51:48;3.33;;;1.37;;
18090;SDS011;9172;49.948;9.208;2023-11-21T12:54:17;2.47;;;1.40;;
18090;SDS011;9172;49.948;9.208;2023-11-21T12:56:46;4.40;;;1.30;;
18090;SDS011;9172;49.948;9.208;2023-11-21T12:59:16;4.47;;;1.47;;
18090;SDS011;9172;49.948;9.208;2023-11-21T13:01:45;3.67;;;1.70;;
18090;SDS011;9172;49.948;9.208;2023-11-21T13:04:13;4.60;;;1.87;;
18090;SDS011;9172;49.948;9.208;2023-11-21T13:06:42;2.70;;;1.33;;
18090;SDS011;9172;49.948;9.208;2023-11-21T13:09:11;4.23;;;1.73;;
18090;SDS011;9172;49.948;9.208;2023-11-21T13:11:41;5.93;;;1.30;;
18090;SDS011;9172;49.948;9.208;2023-11-21T13:14:11;3.10;;;1.30;;
18090;SDS011;9172;49.948;9.208;2023-11-21T13:16:40;2.47;;;1.40;;
18090;SDS011;9172;49.948;9.208;2023-11-21T13:19:10;5.57;;;1.60;;
18090;SDS011;9172;49.948;9.208;2023-11-21T13:21:39;4.20;;;1.87;;
18090;SDS011;9172;49.948;9.208;2023-11-21T13:24:08;3.80;;;1.70;;
18090;SDS011;9172;49.948;9.208;2023-11-21T13:26:37;8.00;;;1.90;;
18090;SDS011;9172;49.948;9.208;2023-11-21T13:29:05;4.60;;;1.90;;
18090;SDS011;9172;49.948;9.208;2023-11-21T13:31:34;2.77;;;1.50;;
18090;SDS011;9172;49.948;9.208;2023-11-21T13:34:03;2.43;;;1.70;;
18090;SDS011;9172;49.948;9.208;2023-11-21T13:36:33;3.20;;;1.60;;
18090;SDS011;9172;49.948;9.208;2023-11-21T13:39:02;4.77;;;1.80;;
18090;SDS011;9172;49.948;9.208;2023-11-21T13:41:33;2.40;;;1.53;;
18090;SDS011;9172;49.948;9.208;2023-11-21T13:44:04;2.33;;;1.70;;
18090;SDS011;9172;49.948;9.208;2023-11-21T13:46:37;9.20;;;2.03;;
18090;SDS011;9172;49.948;9.208;2023-11-21T13:49:06;6.47;;;2.10;;
18090;SDS011;9172;49.948;9.208;2023-11-21T13:51:36;4.13;;;1.60;;
18090;SDS011;9172;49.948;9.208;2023-11-21T13:54:07;6.90;;;2.07;;
18090;SDS011;9172;49.948;9.208;2023-11-21T13:56:36;4.73;;;2.00;;
18090;SDS011;9172;49.948;9.208;2023-11-21T13:59:06;7.07;;;2.27;;
18090;SDS011;9172;49.948;9.208;2023-11-21T14:01:38;3.27;;;1.83;;
18090;SDS011;9172;49.948;9.208;2023-11-21T14:04:21;6.83;;;2.60;;
18090;SDS011;9172;49.948;9.208;2023-11-21T14:07:12;4.20;;;2.07;;
18090;SDS011;9172;49.948;9.208;2023-11-21T14:09:49;4.27;;;1.80;;
18090;SDS011;9172;49.948;9.208;2023-11-21T14:12:19;10.00;;;2.27;;
18090;SDS011;9172;49.948;9.208;2023-11-21T14:14:47;7.73;;;2.77;;
18090;SDS011;9172;49.948;9.208;2023-11-21T14:17:16;13.20;;;3.00;;
18090;SDS011;9172;49.948;9.208;2023-11-21T14:19:44;6.37;;;2.13;;
18090;SDS011;9172;49.948;9.208;2023-11-21T14:22:14;6.50;;;2.23;;
18090;SDS011;9172;49.948;9.208;2023-11-21T14:24:43;8.17;;;2.13;;
18090;SDS011;9172;49.948;9.208;2023-11-21T14:27:13;13.57;;;2.73;;
18090;SDS011;9172;49.948;9.208;2023-11-21T14:29:41;9.93;;;2.50;;
18090;SDS011;9172;49.948;9.208;2023-11-21T14:32:11;5.10;;;1.90;;
18090;SDS011;9172;49.948;9.208;2023-11-21T14:34:40;4.33;;;2.03;;
18090;SDS011;9172;49.948;9.208;2023-11-21T14:37:10;6.87;;;2.50;;
18090;SDS011;9172;49.948;9.208;2023-11-21T14:39:40;5.77;;;2.27;;
18090;SDS011;9172;49.948;9.208;2023-11-21T14:42:10;7.57;;;2.03;;
18090;SDS011;9172;49.948;9.208;2023-11-21T14:44:41;7.53;;;2.00;;
18090;SDS011;9172;49.948;9.208;2023-11-21T14:47:09;7.80;;;2.17;;
18090;SDS011;9172;49.948;9.208;2023-11-21T14:49:42;4.33;;;2.13;;
18090;SDS011;9172;49.948;9.208;2023-11-21T14:52:19;11.07;;;2.07;;
18090;SDS011;9172;49.948;9.208;2023-11-21T14:55:00;8.63;;;2.67;;
18090;SDS011;9172;49.948;9.208;2023-11-21T14:57:49;7.30;;;2.70;;
18090;SDS011;9172;49.948;9.208;2023-11-21T15:00:18;5.33;;;2.10;;
18090;SDS011;9172;49.948;9.208;2023-11-21T15:03:06;12.90;;;3.93;;
18090;SDS011;9172;49.948;9.208;2023-11-21T15:05:36;10.63;;;4.40;;
18090;SDS011;9172;49.948;9.208;2023-11-21T15:08:06;9.70;;;2.53;;
18090;SDS011;9172;49.948;9.208;2023-11-21T15:10:42;14.43;;;3.10;;
18090;SDS011;9172;49.948;9.208;2023-11-21T15:13:14;10.67;;;3.33;;
18090;SDS011;9172;49.948;9.208;2023-11-21T15:15:42;6.17;;;2.60;;
18090;SDS011;9172;49.948;9.208;2023-11-21T15:18:11;11.73;;;2.80;;
18090;SDS011;9172;49.948;9.208;2023-11-21T15:20:40;7.00;;;2.87;;
18090;SDS011;9172;49.948;9.208;2023-11-21T15:23:09;17.97;;;2.93;;